Time,TemperatureF,DewpointF,PressureIn,WindDirection,WindDirectionDegrees,WindSpeedMPH,WindSpeedGustMPH,Humidity,HourlyPrecipIn,Conditions,Clouds,dailyrainin,SoftwareType,DateUTC
2013-02-15 00:00:00,41.7,33.4,30.14,North,0,0.0,0.0,72,0.00,,,0.00,WUHU21623XXSP,2013-02-15 08:00:00,
2013-02-15 00:10:00,41.7,33.4,30.14,North,0,0.0,0.0,72,0.00,,,0.00,WUHU21623XXSP,2013-02-15 08:10:00,
2013-02-15 00:20:00,41.4,33.5,30.15,North,0,0.0,0.0,73,0.00,,,0.00,WUHU21623XXSP,2013-02-15 08:20:00,
2013-02-15 00:30:00,40.8,32.9,30.15,North,0,0.0,0.0,73,0.00,,,0.00,WUHU21623XXSP,2013-02-15 08:30:00,
2013-02-15 00:40:00,40.6,32.7,30.15,North,0,0.0,0.0,73,0.00,,,0.00,WUHU21623XXSP,2013-02-15 08:40:00,
2013-02-15 00:50:00,40.6,32.7,30.15,North,0,0.0,0.0,73,0.00,,,0.00,WUHU21623XXSP,2013-02-15 08:50:00,
2013-02-15 01:00:00,40.8,32.9,30.15,North,0,0.0,0.0,73,0.00,,,0.00,WUHU21623XXSP,2013-02-15 09:00:00,
2013-02-15 01:10:00,40.6,32.7,30.16,North,0,0.0,0.0,73,0.00,,,0.00,WUHU21623XXSP,2013-02-15 09:10:00,
2013-02-15 01:20:00,40.3,32.7,30.16,North,0,0.0,0.0,74,0.00,,,0.00,WUHU21623XXSP,2013-02-15 09:20:00,
2013-02-15 01:30:00,39.9,32.3,30.16,North,0,0.0,0.0,74,0.00,,,0.00,WUHU21623XXSP,2013-02-15 09:30:00,
2013-02-15 01:40:00,39.7,32.2,30.16,North,0,0.0,0.0,74,0.00,,,0.00,WUHU21623XXSP,2013-02-15 09:40:00,
2013-02-15 01:50:00,39.4,31.9,30.16,North,0,0.0,0.0,74,0.00,,,0.00,WUHU21623XXSP,2013-02-15 09:50:00,
2013-02-15 02:00:00,39.0,31.5,30.16,North,0,0.0,0.0,74,0.00,,,0.00,WUHU21623XXSP,2013-02-15 10:00:00,
2013-02-15 02:10:00,39.0,31.5,30.16,North,0,0.0,0.0,74,0.00,,,0.00,WUHU21623XXSP,2013-02-15 10:10:00,
2013-02-15 02:20:00,38.8,31.6,30.16,North,0,0.0,0.0,75,0.00,,,0.00,WUHU21623XXSP,2013-02-15 10:20:00,
2013-02-15 02:30:00,39.0,31.8,30.16,North,0,0.0,0.0,75,0.00,,,0.00,WUHU21623XXSP,2013-02-15 10:30:00,
2013-02-15 02:40:00,38.8,31.6,30.16,North,0,0.0,0.0,75,0.00,,,0.00,WUHU21623XXSP,2013-02-15 10:40:00,
2013-02-15 02:50:00,38.5,31.3,30.16,North,0,0.0,0.0,75,0.00,,,0.00,WUHU21623XXSP,2013-02-15 10:50:00,
2013-02-15 03:00:00,38.5,31.3,30.16,North,0,0.0,0.0,75,0.00,,,0.00,WUHU21623XXSP,2013-02-15 11:00:00,
2013-02-15 03:10:00,38.5,31.3,30.16,North,0,0.0,0.0,75,0.00,,,0.00,WUHU21623XXSP,2013-02-15 11:10:00,
2013-02-15 03:20:00,37.9,30.7,30.16,North,0,0.0,0.0,75,0.00,,,0.00,WUHU21623XXSP,2013-02-15 11:20:00,
2013-02-15 03:30:00,37.8,30.6,30.16,North,0,0.0,0.0,75,0.00,,,0.00,WUHU21623XXSP,2013-02-15 11:30:00,
2013-02-15 03:40:00,37.6,30.4,30.16,North,0,0.0,0.0,75,0.00,,,0.00,WUHU21623XXSP,2013-02-15 11:40:00,
2013-02-15 03:50:00,37.2,30.4,30.16,North,0,0.0,0.0,76,0.00,,,0.00,WUHU21623XXSP,2013-02-15 11:50:00,
2013-02-15 04:00:00,36.7,29.9,30.16,North,0,0.0,0.0,76,0.00,,,0.00,WUHU21623XXSP,2013-02-15 12:00:00,
2013-02-15 04:10:00,36.7,29.9,30.16,North,0,0.0,0.0,76,0.00,,,0.00,WUHU21623XXSP,2013-02-15 12:10:00,
2013-02-15 04:20:00,36.9,30.1,30.16,North,0,0.0,0.0,76,0.00,,,0.00,WUHU21623XXSP,2013-02-15 12:20:00,
2013-02-15 04:30:00,36.9,30.1,30.16,North,0,0.0,0.0,76,0.00,,,0.00,WUHU21623XXSP,2013-02-15 12:30:00,
2013-02-15 04:40:00,36.7,29.9,30.16,North,0,0.0,0.0,76,0.00,,,0.00,WUHU21623XXSP,2013-02-15 12:40:00,
2013-02-15 04:50:00,36.5,30.0,30.16,North,0,0.0,0.0,77,0.00,,,0.00,WUHU21623XXSP,2013-02-15 12:50:00,
2013-02-15 05:00:00,36.7,30.2,30.17,North,0,0.0,0.0,77,0.00,,,0.00,WUHU21623XXSP,2013-02-15 13:00:00,
2013-02-15 05:10:00,36.7,30.2,30.17,North,0,0.0,0.0,77,0.00,,,0.00,WUHU21623XXSP,2013-02-15 13:10:00,
2013-02-15 05:20:00,36.7,29.9,30.17,North,0,0.0,0.0,76,0.00,,,0.00,WUHU21623XXSP,2013-02-15 13:20:00,
2013-02-15 05:30:00,36.5,30.0,30.16,North,0,0.0,0.0,77,0.00,,,0.00,WUHU21623XXSP,2013-02-15 13:30:00,
2013-02-15 05:40:00,36.5,30.0,30.16,North,0,0.0,0.0,77,0.00,,,0.00,WUHU21623XXSP,2013-02-15 13:40:00,
2013-02-15 05:50:00,36.3,29.8,30.16,North,0,0.0,0.0,77,0.00,,,0.00,WUHU21623XXSP,2013-02-15 13:50:00,
2013-02-15 06:00:00,36.1,29.6,30.16,North,0,0.0,0.0,77,0.00,,,0.00,WUHU21623XXSP,2013-02-15 14:00:00,
2013-02-15 06:10:00,36.3,29.8,30.17,North,0,0.0,0.0,77,0.00,,,0.00,WUHU21623XXSP,2013-02-15 14:10:00,
2013-02-15 06:20:00,36.1,29.6,30.17,North,0,0.0,0.0,77,0.00,,,0.00,WUHU21623XXSP,2013-02-15 14:20:00,
2013-02-15 06:30:00,36.1,29.6,30.17,North,0,0.0,0.0,77,0.00,,,0.00,WUHU21623XXSP,2013-02-15 14:30:00,
2013-02-15 06:40:00,36.1,29.9,30.16,North,0,0.0,0.0,78,0.00,,,0.00,WUHU21623XXSP,2013-02-15 14:40:00,
2013-02-15 06:50:00,36.1,29.9,30.16,North,0,0.0,0.0,78,0.00,,,0.00,WUHU21623XXSP,2013-02-15 14:50:00,
2013-02-15 07:03:00,36.1,29.9,30.17,North,0,0.0,0.0,78,0.00,,,0.00,WUHU21623XXSP,2013-02-15 15:03:00,
2013-02-15 07:08:00,36.1,29.6,30.17,North,0,0.0,0.0,77,0.00,,,0.00,WUHU21623XXSP,2013-02-15 15:08:00,
2013-02-15 07:13:00,36.1,29.6,30.17,North,0,0.0,0.0,77,0.00,,,0.00,WUHU21623XXSP,2013-02-15 15:13:00,
2013-02-15 07:18:00,36.1,29.9,30.17,North,0,0.0,0.0,78,0.00,,,0.00,WUHU21623XXSP,2013-02-15 15:18:00,
2013-02-15 07:23:00,36.1,29.9,30.17,North,0,0.0,0.0,78,0.00,,,0.00,WUHU21623XXSP,2013-02-15 15:23:00,
2013-02-15 07:28:00,36.3,30.1,30.17,North,0,0.0,0.0,78,0.00,,,0.00,WUHU21623XXSP,2013-02-15 15:28:00,
2013-02-15 07:34:00,36.3,30.1,30.17,North,0,0.0,0.0,78,0.00,,,0.00,WUHU21623XXSP,2013-02-15 15:34:00,
2013-02-15 07:39:00,36.7,30.1,30.18,North,0,0.0,0.0,77,0.00,,,0.00,WUHU21623XXSP,2013-02-15 15:39:00,
2013-02-15 07:44:00,36.7,30.1,30.18,North,0,0.0,0.0,77,0.00,,,0.00,WUHU21623XXSP,2013-02-15 15:44:00,
2013-02-15 07:49:00,36.9,30.3,30.18,North,0,0.0,0.0,77,0.00,,,0.00,WUHU21623XXSP,2013-02-15 15:49:00,
2013-02-15 07:54:00,36.9,30.6,30.18,North,0,0.0,0.0,78,0.00,,,0.00,WUHU21623XXSP,2013-02-15 15:54:00,
2013-02-15 07:59:00,37.0,30.8,30.18,North,0,0.0,0.0,78,0.00,,,0.00,WUHU21623XXSP,2013-02-15 15:59:00,
2013-02-15 08:04:00,37.2,30.7,30.18,North,0,0.0,0.0,77,0.00,,,0.00,WUHU21623XXSP,2013-02-15 16:04:00,
2013-02-15 08:08:00,37.6,31.0,30.18,North,0,0.0,0.0,77,0.00,,,0.00,WUHU21623XXSP,2013-02-15 16:08:00,
2013-02-15 08:13:00,38.1,31.5,30.18,North,0,0.0,0.0,77,0.00,,,0.00,WUHU21623XXSP,2013-02-15 16:13:00,
2013-02-15 08:18:00,38.5,31.9,30.18,North,0,0.0,0.0,77,0.00,,,0.00,WUHU21623XXSP,2013-02-15 16:18:00,
2013-02-15 08:23:00,38.8,32.2,30.18,North,0,0.0,0.0,77,0.00,,,0.00,WUHU21623XXSP,2013-02-15 16:23:00,
2013-02-15 08:28:00,39.4,32.4,30.18,North,0,0.0,0.0,76,0.00,,,0.00,WUHU21623XXSP,2013-02-15 16:28:00,
2013-02-15 08:33:00,39.7,32.8,30.18,North,0,0.0,0.0,76,0.00,,,0.00,WUHU21623XXSP,2013-02-15 16:33:00,
2013-02-15 08:38:00,39.9,32.9,30.18,North,0,0.0,0.0,76,0.00,,,0.00,WUHU21623XXSP,2013-02-15 16:38:00,
2013-02-15 08:43:00,39.9,32.9,30.18,North,0,0.0,0.0,76,0.00,,,0.00,WUHU21623XXSP,2013-02-15 16:43:00,
2013-02-15 08:48:00,40.1,33.1,30.19,North,0,0.0,0.0,76,0.00,,,0.00,WUHU21623XXSP,2013-02-15 16:48:00,
2013-02-15 08:53:00,40.6,33.6,30.18,North,0,0.0,0.0,76,0.00,,,0.00,WUHU21623XXSP,2013-02-15 16:53:00,
2013-02-15 08:58:00,40.8,33.8,30.18,North,0,0.0,0.0,76,0.00,,,0.00,WUHU21623XXSP,2013-02-15 16:58:00,
2013-02-15 09:03:00,41.4,34.3,30.18,North,0,0.0,0.0,76,0.00,,,0.00,WUHU21623XXSP,2013-02-15 17:03:00,
2013-02-15 09:08:00,41.7,34.7,30.18,North,0,0.0,0.0,76,0.00,,,0.00,WUHU21623XXSP,2013-02-15 17:08:00,
2013-02-15 09:13:00,42.6,35.6,30.18,North,0,0.0,0.0,76,0.00,,,0.00,WUHU21623XXSP,2013-02-15 17:13:00,
2013-02-15 09:18:00,43.3,35.9,30.18,North,0,0.0,0.0,75,0.00,,,0.00,WUHU21623XXSP,2013-02-15 17:18:00,
2013-02-15 09:23:00,44.4,37.0,30.18,North,0,0.0,0.0,75,0.00,,,0.00,WUHU21623XXSP,2013-02-15 17:23:00,
2013-02-15 09:28:00,45.5,38.0,30.18,North,0,0.0,0.0,74,0.00,,,0.00,WUHU21623XXSP,2013-02-15 17:28:00,
2013-02-15 09:33:00,46.2,38.1,30.18,North,0,0.0,0.0,73,0.00,,,0.00,WUHU21623XXSP,2013-02-15 17:33:00,
2013-02-15 09:38:00,46.9,38.4,30.18,North,0,0.0,0.0,72,0.00,,,0.00,WUHU21623XXSP,2013-02-15 17:38:00,
2013-02-15 09:43:00,47.7,38.7,30.18,North,0,0.0,0.0,71,0.00,,,0.00,WUHU21623XXSP,2013-02-15 17:43:00,
2013-02-15 09:48:00,48.6,39.2,30.17,North,0,0.0,0.0,70,0.00,,,0.00,WUHU21623XXSP,2013-02-15 17:48:00,
2013-02-15 09:53:00,49.3,39.5,30.18,North,0,0.0,0.0,69,0.00,,,0.00,WUHU21623XXSP,2013-02-15 17:53:00,
2013-02-15 09:58:00,50.2,40.4,30.18,North,0,0.0,0.0,69,0.00,,,0.00,WUHU21623XXSP,2013-02-15 17:58:00,
2013-02-15 10:03:00,51.1,41.3,30.18,North,0,0.0,0.0,69,0.00,,,0.00,WUHU21623XXSP,2013-02-15 18:03:00,
2013-02-15 10:08:00,51.6,41.0,30.18,North,0,0.0,0.0,67,0.00,,,0.00,WUHU21623XXSP,2013-02-15 18:08:00,
2013-02-15 10:13:00,52.5,41.5,30.18,North,0,0.0,0.0,66,0.00,,,0.00,WUHU21623XXSP,2013-02-15 18:13:00,
2013-02-15 10:18:00,53.1,41.6,30.18,North,0,0.0,0.0,65,0.00,,,0.00,WUHU21623XXSP,2013-02-15 18:18:00,
2013-02-15 10:23:00,53.4,41.5,30.18,North,0,0.0,0.0,64,0.00,,,0.00,WUHU21623XXSP,2013-02-15 18:23:00,
2013-02-15 10:28:00,53.8,41.8,30.18,North,0,0.0,0.0,64,0.00,,,0.00,WUHU21623XXSP,2013-02-15 18:28:00,
2013-02-15 10:33:00,54.5,42.5,30.18,North,0,0.0,0.0,64,0.00,,,0.00,WUHU21623XXSP,2013-02-15 18:33:00,
2013-02-15 10:38:00,55.0,42.6,30.18,North,0,0.0,0.0,63,0.00,,,0.00,WUHU21623XXSP,2013-02-15 18:38:00,
2013-02-15 10:43:00,55.6,42.7,30.18,North,0,0.0,0.0,62,0.00,,,0.00,WUHU21623XXSP,2013-02-15 18:43:00,
2013-02-15 10:48:00,56.1,42.8,30.18,North,0,0.0,0.0,61,0.00,,,0.00,WUHU21623XXSP,2013-02-15 18:48:00,
2013-02-15 10:53:00,56.8,43.2,30.19,North,0,0.0,0.0,60,0.00,,,0.00,WUHU21623XXSP,2013-02-15 18:53:00,
2013-02-15 10:58:00,57.4,43.2,30.19,North,0,0.0,0.0,59,0.00,,,0.00,WUHU21623XXSP,2013-02-15 18:58:00,
2013-02-15 11:03:00,57.9,42.3,30.19,North,0,0.0,0.0,56,0.00,,,0.00,WUHU21623XXSP,2013-02-15 19:03:00,
2013-02-15 11:08:00,58.6,42.0,30.19,North,0,0.0,0.0,54,0.00,,,0.00,WUHU21623XXSP,2013-02-15 19:08:00,
2013-02-15 11:13:00,59.4,41.7,30.19,North,0,0.0,0.0,52,0.00,,,0.00,WUHU21623XXSP,2013-02-15 19:13:00,
2013-02-15 11:18:00,59.9,42.2,30.19,North,0,0.0,0.0,52,0.00,,,0.00,WUHU21623XXSP,2013-02-15 19:18:00,
2013-02-15 11:23:00,60.4,42.7,30.19,North,0,0.0,0.0,52,0.00,,,0.00,WUHU21623XXSP,2013-02-15 19:23:00,
2013-02-15 11:28:00,61.0,43.7,30.19,North,0,0.0,0.0,53,0.00,,,0.00,WUHU21623XXSP,2013-02-15 19:28:00,
2013-02-15 11:33:00,61.5,43.2,30.19,North,0,0.0,0.0,51,0.00,,,0.00,WUHU21623XXSP,2013-02-15 19:33:00,
2013-02-15 11:38:00,61.9,43.5,30.19,North,0,0.0,0.0,51,0.00,,,0.00,WUHU21623XXSP,2013-02-15 19:38:00,
2013-02-15 11:43:00,62.4,43.5,30.18,North,0,0.0,0.0,50,0.00,,,0.00,WUHU21623XXSP,2013-02-15 19:43:00,
2013-02-15 11:48:00,63.0,42.9,30.18,North,0,0.0,0.0,48,0.00,,,0.00,WUHU21623XXSP,2013-02-15 19:48:00,
2013-02-15 11:53:00,63.3,42.6,30.18,North,0,0.0,0.0,47,0.00,,,0.00,WUHU21623XXSP,2013-02-15 19:53:00,
2013-02-15 11:58:00,63.5,42.8,30.18,North,0,0.0,0.0,47,0.00,,,0.00,WUHU21623XXSP,2013-02-15 19:58:00,
2013-02-15 12:03:00,63.7,42.4,30.18,North,0,0.0,0.0,46,0.00,,,0.00,WUHU21623XXSP,2013-02-15 20:03:00,
2013-02-15 12:08:00,64.0,42.1,30.18,North,0,0.0,0.0,45,0.00,,,0.00,WUHU21623XXSP,2013-02-15 20:08:00,
2013-02-15 12:13:00,64.2,42.3,30.18,North,0,0.0,0.0,45,0.00,,,0.00,WUHU21623XXSP,2013-02-15 20:13:00,
2013-02-15 12:18:00,64.6,41.5,30.17,North,0,0.0,0.0,43,0.00,,,0.00,WUHU21623XXSP,2013-02-15 20:18:00,
2013-02-15 12:23:00,64.8,41.6,30.17,North,0,0.0,0.0,43,0.00,,,0.00,WUHU21623XXSP,2013-02-15 20:23:00,
2013-02-15 12:28:00,65.1,41.4,30.17,North,0,0.0,0.0,42,0.00,,,0.00,WUHU21623XXSP,2013-02-15 20:28:00,
2013-02-15 12:33:00,65.5,42.3,30.17,North,0,0.0,0.0,43,0.00,,,0.00,WUHU21623XXSP,2013-02-15 20:33:00,
2013-02-15 12:38:00,65.8,42.0,30.17,North,0,0.0,0.0,42,0.00,,,0.00,WUHU21623XXSP,2013-02-15 20:38:00,
2013-02-15 12:43:00,66.0,43.4,30.17,North,0,0.0,0.0,44,0.00,,,0.00,WUHU21623XXSP,2013-02-15 20:43:00,
2013-02-15 12:48:00,66.0,43.4,30.17,North,0,0.0,0.0,44,0.00,,,0.00,WUHU21623XXSP,2013-02-15 20:48:00,
2013-02-15 12:53:00,66.4,43.7,30.17,North,0,0.0,0.0,44,0.00,,,0.00,WUHU21623XXSP,2013-02-15 20:53:00,
2013-02-15 12:58:00,66.6,43.9,30.16,North,0,0.0,0.0,44,0.00,,,0.00,WUHU21623XXSP,2013-02-15 20:58:00,
2013-02-15 13:03:00,66.6,43.9,30.16,North,0,0.0,0.0,44,0.00,,,0.00,WUHU21623XXSP,2013-02-15 21:03:00,
2013-02-15 13:08:00,66.6,44.5,30.16,North,0,0.0,0.0,45,0.00,,,0.00,WUHU21623XXSP,2013-02-15 21:08:00,
2013-02-15 13:13:00,66.7,44.6,30.16,North,0,0.0,0.0,45,0.00,,,0.00,WUHU21623XXSP,2013-02-15 21:13:00,
2013-02-15 13:18:00,66.7,44.6,30.16,North,0,0.0,0.0,45,0.00,,,0.00,WUHU21623XXSP,2013-02-15 21:18:00,
2013-02-15 13:23:00,66.9,44.8,30.16,North,0,0.0,0.0,45,0.00,,,0.00,WUHU21623XXSP,2013-02-15 21:23:00,
2013-02-15 13:28:00,67.1,45.0,30.16,North,0,0.0,0.0,45,0.00,,,0.00,WUHU21623XXSP,2013-02-15 21:28:00,
2013-02-15 13:33:00,67.3,45.0,30.16,North,0,0.0,0.0,45,0.00,,,0.00,WUHU21623XXSP,2013-02-15 21:33:00,
2013-02-15 13:38:00,67.3,45.1,30.16,North,0,0.0,0.0,45,0.00,,,0.00,WUHU21623XXSP,2013-02-15 21:38:00,
2013-02-15 13:43:00,67.6,45.4,30.16,North,0,0.0,0.0,45,0.00,,,0.00,WUHU21623XXSP,2013-02-15 21:43:00,
2013-02-15 13:48:00,67.6,44.9,30.16,North,0,0.0,0.0,44,0.00,,,0.00,WUHU21623XXSP,2013-02-15 21:48:00,
2013-02-15 13:53:00,67.8,45.0,30.16,North,0,0.0,0.0,44,0.00,,,0.00,WUHU21623XXSP,2013-02-15 21:53:00,
2013-02-15 13:58:00,67.8,45.0,30.16,North,0,0.0,0.0,44,0.00,,,0.00,WUHU21623XXSP,2013-02-15 21:58:00,
2013-02-15 14:03:00,67.8,44.4,30.16,North,0,0.0,0.0,43,0.00,,,0.00,WUHU21623XXSP,2013-02-15 22:03:00,
2013-02-15 14:08:00,67.8,44.4,30.15,North,0,0.0,0.0,43,0.00,,,0.00,WUHU21623XXSP,2013-02-15 22:08:00,
2013-02-15 14:13:00,67.8,44.4,30.15,North,0,0.0,0.0,43,0.00,,,0.00,WUHU21623XXSP,2013-02-15 22:13:00,
2013-02-15 14:18:00,67.8,44.4,30.15,North,0,0.0,0.0,43,0.00,,,0.00,WUHU21623XXSP,2013-02-15 22:18:00,
2013-02-15 14:23:00,68.0,44.6,30.15,North,0,0.0,0.0,43,0.00,,,0.00,WUHU21623XXSP,2013-02-15 22:23:00,
2013-02-15 14:28:00,67.8,43.8,30.15,North,0,0.0,0.0,42,0.00,,,0.00,WUHU21623XXSP,2013-02-15 22:28:00,
2013-02-15 14:33:00,67.8,43.8,30.15,North,0,0.0,0.0,42,0.00,,,0.00,WUHU21623XXSP,2013-02-15 22:33:00,
2013-02-15 14:38:00,67.8,43.8,30.15,North,0,0.0,0.0,42,0.00,,,0.00,WUHU21623XXSP,2013-02-15 22:38:00,
2013-02-15 14:43:00,68.2,44.1,30.15,North,0,0.0,0.0,42,0.00,,,0.00,WUHU21623XXSP,2013-02-15 22:43:00,
2013-02-15 14:48:00,68.4,44.3,30.15,North,0,0.0,0.0,42,0.00,,,0.00,WUHU21623XXSP,2013-02-15 22:48:00,
2013-02-15 14:53:00,68.5,43.9,30.15,North,0,0.0,0.0,41,0.00,,,0.00,WUHU21623XXSP,2013-02-15 22:53:00,
2013-02-15 14:58:00,68.5,43.9,30.15,North,0,0.0,0.0,41,0.00,,,0.00,WUHU21623XXSP,2013-02-15 22:58:00,
2013-02-15 15:03:00,68.7,44.0,30.15,North,0,0.0,0.0,41,0.00,,,0.00,WUHU21623XXSP,2013-02-15 23:03:00,
2013-02-15 15:08:00,68.7,44.0,30.15,North,0,0.0,0.0,41,0.00,,,0.00,WUHU21623XXSP,2013-02-15 23:08:00,
2013-02-15 15:13:00,68.7,44.0,30.15,North,0,0.0,0.0,41,0.00,,,0.00,WUHU21623XXSP,2013-02-15 23:13:00,
2013-02-15 15:18:00,68.7,44.0,30.16,North,0,0.0,0.0,41,0.00,,,0.00,WUHU21623XXSP,2013-02-15 23:18:00,
2013-02-15 15:23:00,68.7,44.0,30.15,North,0,0.0,0.0,41,0.00,,,0.00,WUHU21623XXSP,2013-02-15 23:23:00,
2013-02-15 15:28:00,68.7,44.0,30.15,North,0,0.0,0.0,41,0.00,,,0.00,WUHU21623XXSP,2013-02-15 23:28:00,
2013-02-15 15:33:00,68.5,44.5,30.15,North,0,0.0,0.0,42,0.00,,,0.00,WUHU21623XXSP,2013-02-15 23:33:00,
2013-02-15 15:38:00,68.7,44.6,30.15,North,0,0.0,0.0,42,0.00,,,0.00,WUHU21623XXSP,2013-02-15 23:38:00,
2013-02-15 15:43:00,68.5,44.5,30.16,North,0,0.0,0.0,42,0.00,,,0.00,WUHU21623XXSP,2013-02-15 23:43:00,
2013-02-15 15:48:00,68.5,44.5,30.16,North,0,0.0,0.0,42,0.00,,,0.00,WUHU21623XXSP,2013-02-15 23:48:00,
2013-02-15 15:53:00,68.7,45.2,30.15,North,0,0.0,0.0,43,0.00,,,0.00,WUHU21623XXSP,2013-02-15 23:53:00,
2013-02-15 15:58:00,68.7,45.2,30.16,North,0,0.0,0.0,43,0.00,,,0.00,WUHU21623XXSP,2013-02-15 23:58:00,
2013-02-15 16:03:00,68.5,45.7,30.16,North,0,0.0,0.0,44,0.00,,,0.00,WUHU21623XXSP,2013-02-16 00:03:00,
2013-02-15 16:08:00,68.5,45.7,30.15,North,0,0.0,0.0,44,0.00,,,0.00,WUHU21623XXSP,2013-02-16 00:08:00,
2013-02-15 16:13:00,68.4,45.5,30.15,North,0,0.0,0.0,44,0.00,,,0.00,WUHU21623XXSP,2013-02-16 00:13:00,
2013-02-15 16:18:00,68.2,45.9,30.15,North,0,0.0,0.0,45,0.00,,,0.00,WUHU21623XXSP,2013-02-16 00:18:00,
2013-02-15 16:23:00,67.8,45.6,30.16,North,0,0.0,0.0,45,0.00,,,0.00,WUHU21623XXSP,2013-02-16 00:23:00,
2013-02-15 16:28:00,67.6,46.0,30.16,North,0,0.0,0.0,46,0.00,,,0.00,WUHU21623XXSP,2013-02-16 00:28:00,
2013-02-15 16:33:00,67.3,46.3,30.15,North,0,0.0,0.0,47,0.00,,,0.00,WUHU21623XXSP,2013-02-16 00:33:00,
2013-02-15 16:38:00,66.6,45.8,30.15,North,0,0.0,0.0,48,0.00,,,0.00,WUHU21623XXSP,2013-02-16 00:38:00,
2013-02-15 16:43:00,65.5,45.2,30.15,North,0,0.0,0.0,48,0.00,,,0.00,WUHU21623XXSP,2013-02-16 00:43:00,
2013-02-15 16:48:00,64.2,44.6,30.15,North,0,0.0,0.0,49,0.00,,,0.00,WUHU21623XXSP,2013-02-16 00:48:00,
2013-02-15 16:53:00,63.3,44.3,30.15,North,0,0.0,0.0,50,0.00,,,0.00,WUHU21623XXSP,2013-02-16 00:53:00,
2013-02-15 16:58:00,62.4,43.5,30.15,North,0,0.0,0.0,50,0.00,,,0.00,WUHU21623XXSP,2013-02-16 00:58:00,
2013-02-15 17:04:00,61.3,43.1,30.15,North,0,0.0,0.0,51,0.00,,,0.00,WUHU21623XXSP,2013-02-16 01:04:00,
2013-02-15 17:08:00,60.4,42.7,30.15,North,0,0.0,0.0,52,0.00,,,0.00,WUHU21623XXSP,2013-02-16 01:08:00,
2013-02-15 17:13:00,59.7,42.5,30.15,North,0,0.0,0.0,53,0.00,,,0.00,WUHU21623XXSP,2013-02-16 01:13:00,
2013-02-15 17:18:00,59.0,42.3,30.15,North,0,0.0,0.0,54,0.00,,,0.00,WUHU21623XXSP,2013-02-16 01:18:00,
2013-02-15 17:23:00,58.3,42.2,30.15,North,0,0.0,0.0,55,0.00,,,0.00,WUHU21623XXSP,2013-02-16 01:23:00,
2013-02-15 17:28:00,57.7,42.1,30.15,North,0,0.0,0.0,56,0.00,,,0.00,WUHU21623XXSP,2013-02-16 01:28:00,
2013-02-15 17:33:00,57.2,41.6,30.15,North,0,0.0,0.0,56,0.00,,,0.00,WUHU21623XXSP,2013-02-16 01:33:00,
2013-02-15 17:39:00,56.7,41.6,30.15,North,0,0.0,0.0,57,0.00,,,0.00,WUHU21623XXSP,2013-02-16 01:39:00,
2013-02-15 17:43:00,56.1,41.5,30.15,North,0,0.0,0.0,58,0.00,,,0.00,WUHU21623XXSP,2013-02-16 01:43:00,
2013-02-15 17:48:00,55.8,41.1,30.15,North,0,0.0,0.0,58,0.00,,,0.00,WUHU21623XXSP,2013-02-16 01:48:00,
2013-02-15 17:53:00,55.2,41.1,30.15,North,0,0.0,0.0,59,0.00,,,0.00,WUHU21623XXSP,2013-02-16 01:53:00,
2013-02-15 17:58:00,54.7,41.1,30.15,North,0,0.0,0.0,60,0.00,,,0.00,WUHU21623XXSP,2013-02-16 01:58:00,
2013-02-15 18:03:00,54.3,40.7,30.16,North,0,0.0,0.0,60,0.00,,,0.00,WUHU21623XXSP,2013-02-16 02:03:00,
2013-02-15 18:08:00,53.8,40.7,30.16,North,0,0.0,0.0,61,0.00,,,0.00,WUHU21623XXSP,2013-02-16 02:08:00,
2013-02-15 18:14:00,53.4,40.3,30.16,North,0,0.0,0.0,61,0.00,,,0.00,WUHU21623XXSP,2013-02-16 02:14:00,
2013-02-15 18:18:00,52.9,39.8,30.16,North,0,0.0,0.0,61,0.00,,,0.00,WUHU21623XXSP,2013-02-16 02:18:00,
2013-02-15 18:23:00,52.5,39.8,30.16,North,0,0.0,0.0,62,0.00,,,0.00,WUHU21623XXSP,2013-02-16 02:23:00,
2013-02-15 18:28:00,52.2,39.9,30.16,North,0,0.0,0.0,63,0.00,,,0.00,WUHU21623XXSP,2013-02-16 02:28:00,
2013-02-15 18:33:00,51.8,39.5,30.16,North,0,0.0,0.0,63,0.00,,,0.00,WUHU21623XXSP,2013-02-16 02:33:00,
2013-02-15 18:38:00,51.6,39.8,30.16,North,0,0.0,0.0,64,0.00,,,0.00,WUHU21623XXSP,2013-02-16 02:38:00,
2013-02-15 18:43:00,51.1,39.7,30.16,North,0,0.0,0.0,65,0.00,,,0.00,WUHU21623XXSP,2013-02-16 02:43:00,
2013-02-15 18:48:00,50.9,39.5,30.17,North,0,0.0,0.0,65,0.00,,,0.00,WUHU21623XXSP,2013-02-16 02:48:00,
2013-02-15 18:53:00,50.7,39.3,30.17,North,0,0.0,0.0,65,0.00,,,0.00,WUHU21623XXSP,2013-02-16 02:53:00,
2013-02-15 18:58:00,50.4,39.4,30.17,North,0,0.0,0.0,66,0.00,,,0.00,WUHU21623XXSP,2013-02-16 02:58:00,
2013-02-15 19:03:00,50.2,39.2,30.17,North,0,0.0,0.0,66,0.00,,,0.00,WUHU21623XXSP,2013-02-16 03:03:00,
2013-02-15 19:08:00,49.8,39.3,30.17,North,0,0.0,0.0,67,0.00,,,0.00,WUHU21623XXSP,2013-02-16 03:08:00,
2013-02-15 19:13:00,49.8,39.7,30.17,North,0,0.0,0.0,68,0.00,,,0.00,WUHU21623XXSP,2013-02-16 03:13:00,
2013-02-15 19:18:00,49.6,39.5,30.17,North,0,0.0,0.0,68,0.00,,,0.00,WUHU21623XXSP,2013-02-16 03:18:00,
2013-02-15 19:23:00,49.3,39.1,30.17,North,0,0.0,0.0,68,0.00,,,0.00,WUHU21623XXSP,2013-02-16 03:23:00,
2013-02-15 19:28:00,49.1,39.3,30.18,North,0,0.0,0.0,69,0.00,,,0.00,WUHU21623XXSP,2013-02-16 03:28:00,
2013-02-15 19:33:00,48.9,39.2,30.17,North,0,0.0,0.0,69,0.00,,,0.00,WUHU21623XXSP,2013-02-16 03:33:00,
2013-02-15 19:38:00,48.7,39.4,30.18,North,0,0.0,0.0,70,0.00,,,0.00,WUHU21623XXSP,2013-02-16 03:38:00,
2013-02-15 19:43:00,48.6,39.4,30.17,North,0,0.0,0.0,70,0.00,,,0.00,WUHU21623XXSP,2013-02-16 03:43:00,
2013-02-15 19:48:00,48.4,39.4,30.18,North,0,0.0,0.0,71,0.00,,,0.00,WUHU21623XXSP,2013-02-16 03:48:00,
2013-02-15 19:54:00,48.0,39.0,30.18,North,0,0.0,0.0,71,0.00,,,0.00,WUHU21623XXSP,2013-02-16 03:54:00,
2013-02-15 19:58:00,48.0,39.4,30.18,North,0,0.0,0.0,72,0.00,,,0.00,WUHU21623XXSP,2013-02-16 03:58:00,
2013-02-15 20:03:00,47.8,39.2,30.18,North,0,0.0,0.0,72,0.00,,,0.00,WUHU21623XXSP,2013-02-16 04:03:00,
2013-02-15 20:09:00,47.7,39.4,30.18,North,0,0.0,0.0,73,0.00,,,0.00,WUHU21623XXSP,2013-02-16 04:09:00,
2013-02-15 20:14:00,47.3,39.1,30.18,North,0,0.0,0.0,73,0.00,,,0.00,WUHU21623XXSP,2013-02-16 04:14:00,
2013-02-15 20:19:00,47.1,38.9,30.17,North,0,0.0,0.0,73,0.00,,,0.00,WUHU21623XXSP,2013-02-16 04:19:00,
2013-02-15 20:24:00,46.8,38.9,30.18,North,0,0.0,0.0,74,0.00,,,0.00,WUHU21623XXSP,2013-02-16 04:24:00,
2013-02-15 20:29:00,46.6,38.8,30.18,North,0,0.0,0.0,74,0.00,,,0.00,WUHU21623XXSP,2013-02-16 04:29:00,
2013-02-15 20:34:00,46.4,38.6,30.18,North,0,0.0,0.0,74,0.00,,,0.00,WUHU21623XXSP,2013-02-16 04:34:00,
2013-02-15 20:39:00,46.2,38.8,30.18,North,0,0.0,0.0,75,0.00,,,0.00,WUHU21623XXSP,2013-02-16 04:39:00,
2013-02-15 20:44:00,46.0,38.6,30.18,North,0,0.0,0.0,75,0.00,,,0.00,WUHU21623XXSP,2013-02-16 04:44:00,
2013-02-15 20:49:00,45.7,38.6,30.18,North,0,0.0,0.0,76,0.00,,,0.00,WUHU21623XXSP,2013-02-16 04:49:00,
2013-02-15 20:54:00,45.7,38.6,30.18,North,0,0.0,0.0,76,0.00,,,0.00,WUHU21623XXSP,2013-02-16 04:54:00,
2013-02-15 20:59:00,45.3,38.2,30.18,North,0,0.0,0.0,76,0.00,,,0.00,WUHU21623XXSP,2013-02-16 04:59:00,
2013-02-15 21:00:00,45.3,38.2,30.18,North,0,0.0,0.0,76,0.00,,,0.00,WUHU21623XXSP,2013-02-16 05:00:00,
2013-02-15 21:09:00,45.0,37.9,30.18,North,0,0.0,0.0,76,0.00,,,0.00,WUHU21623XXSP,2013-02-16 05:09:00,
2013-02-15 21:19:00,44.4,37.7,30.18,North,0,0.0,0.0,77,0.00,,,0.00,WUHU21623XXSP,2013-02-16 05:19:00,
2013-02-15 21:29:00,44.2,37.8,30.19,North,0,0.0,0.0,78,0.00,,,0.00,WUHU21623XXSP,2013-02-16 05:29:00,
2013-02-15 21:39:00,43.9,37.8,30.18,North,0,0.0,0.0,79,0.00,,,0.00,WUHU21623XXSP,2013-02-16 05:39:00,
2013-02-15 21:49:00,43.7,37.6,30.19,North,0,0.0,0.0,79,0.00,,,0.00,WUHU21623XXSP,2013-02-16 05:49:00,
2013-02-15 21:59:00,43.5,37.8,30.18,North,0,0.0,0.0,80,0.00,,,0.00,WUHU21623XXSP,2013-02-16 05:59:00,
2013-02-15 22:09:00,43.3,37.6,30.19,North,0,0.0,0.0,80,0.00,,,0.00,WUHU21623XXSP,2013-02-16 06:09:00,
2013-02-15 22:19:00,43.0,37.6,30.19,North,0,0.0,0.0,81,0.00,,,0.00,WUHU21623XXSP,2013-02-16 06:19:00,
2013-02-15 22:29:00,42.8,37.4,30.19,North,0,0.0,0.0,81,0.00,,,0.00,WUHU21623XXSP,2013-02-16 06:29:00,
2013-02-15 22:39:00,42.6,37.2,30.19,North,0,0.0,0.0,81,0.00,,,0.00,WUHU21623XXSP,2013-02-16 06:39:00,
2013-02-15 22:49:00,42.6,37.2,30.18,North,0,0.0,0.0,81,0.00,,,0.00,WUHU21623XXSP,2013-02-16 06:49:00,
2013-02-15 22:59:00,42.4,37.3,30.18,North,0,0.0,0.0,82,0.00,,,0.00,WUHU21623XXSP,2013-02-16 06:59:00,
2013-02-15 23:09:00,42.1,36.7,30.19,North,0,0.0,0.0,81,0.00,,,0.00,WUHU21623XXSP,2013-02-16 07:09:00,
2013-02-15 23:19:00,41.9,36.8,30.19,North,0,0.0,0.0,82,0.00,,,0.00,WUHU21623XXSP,2013-02-16 07:19:00,
2013-02-15 23:29:00,41.7,36.6,30.19,North,0,0.0,0.0,82,0.00,,,0.00,WUHU21623XXSP,2013-02-16 07:29:00,
2013-02-15 23:39:00,41.9,36.8,30.18,North,0,0.0,0.0,82,0.00,,,0.00,WUHU21623XXSP,2013-02-16 07:39:00,
2013-02-15 23:49:00,41.5,36.4,30.19,North,0,0.0,0.0,82,0.00,,,0.00,WUHU21623XXSP,2013-02-16 07:49:00,
2013-02-15 23:59:00,41.4,36.6,30.19,North,0,0.0,0.0,83,0.00,,,0.00,WUHU21623XXSP,2013-02-16 07:59:00,